Time;durP1;ratioP1;P1;durP2;ratioP2;P2;SDS_P1;SDS_P2;PMS_P1;PMS_P2;Temp;Humidity;BMP_temperature;BMP_pressure;BME280_temperature;BME280_humidity;BME280_pressure;Samples;Min_cycle;Max_cycle;Signal;HPM_P1;HPM_P2
2021/07/10 00:02:24;;;;;;;3.50;3.25;;;;;;;;;;5072754;28;20227;-83
2021/07/10 00:04:51;;;;;;;4.82;3.55;;;;;;;;;;5072800;28;20188;-82
2021/07/10 00:07:18;;;;;;;3.75;3.45;;;;;;;;;;5073480;28;20201;-83
2021/07/10 00:09:46;;;;;;;4.05;3.75;;;;;;;;;;5072927;28;20185;-83
2021/07/10 00:12:13;;;;;;;3.13;2.92;;;;;;;;;;5076168;28;20233;-83
2021/07/10 00:14:42;;;;;;;2.95;2.75;;;;;;;;;;5076944;28;20212;-82
2021/07/10 00:17:09;;;;;;;2.85;2.65;;;;;;;;;;5074339;28;20221;-83
2021/07/10 00:19:37;;;;;;;3.85;3.55;;;;;;;;;;5071284;28;20209;-83
2021/07/10 00:22:05;;;;;;;3.90;3.45;;;;;;;;;;5072607;28;20231;-83
2021/07/10 00:24:32;;;;;;;2.97;2.65;;;;;;;;;;5072529;28;20212;-82
2021/07/10 00:27:00;;;;;;;4.32;2.22;;;;;;;;;;5073176;28;20189;-83
2021/07/10 00:29:28;;;;;;;2.70;2.28;;;;;;;;;;5072667;28;20666;-83
2021/07/10 00:31:57;;;;;;;2.60;2.40;;;;;;;;;;5072024;28;20217;-82
2021/07/10 00:34:24;;;;;;;3.33;3.03;;;;;;;;;;5072276;28;20201;-82
2021/07/10 00:36:51;;;;;;;3.42;3.22;;;;;;;;;;5072941;28;20216;-85
2021/07/10 00:39:19;;;;;;;2.85;2.65;;;;;;;;;;5073416;28;20190;-84
2021/07/10 00:41:46;;;;;;;3.05;2.85;;;;;;;;;;5072330;28;20232;-83
2021/07/10 00:44:14;;;;;;;3.20;2.90;;;;;;;;;;5073150;28;20577;-83
2021/07/10 00:46:41;;;;;;;3.03;2.78;;;;;;;;;;5072719;28;20189;-82
2021/07/10 00:49:12;;;;;;;3.03;2.75;;;;;;;;;;5072798;28;20227;-82
2021/07/10 00:51:39;;;;;;;3.35;3.05;;;;;;;;;;5072934;28;20221;-83
2021/07/10 00:54:07;;;;;;;3.42;3.22;;;;;;;;;;5073342;28;20189;-84
2021/07/10 00:56:34;;;;;;;3.20;3.00;;;;;;;;;;5072909;28;20212;-83
2021/07/10 00:59:02;;;;;;;4.07;3.05;;;;;;;;;;5072657;28;20204;-83
2021/07/10 01:01:29;;;;;;;3.10;2.80;;;;;;;;;;5072399;28;20217;-82
2021/07/10 01:03:57;;;;;;;3.53;3.33;;;;;;;;;;5055283;28;20204;-83
2021/07/10 01:06:25;;;;;;;3.15;2.95;;;;;;;;;;5053098;28;20197;-82
2021/07/10 01:08:53;;;;;;;3.72;3.38;;;;;;;;;;5052862;28;20209;-83
2021/07/10 01:11:20;;;;;;;4.30;3.90;;;;;;;;;;5060903;28;20328;-83
2021/07/10 01:13:49;;;;;;;4.82;3.83;;;;;;;;;;5072129;28;20201;-83
2021/07/10 01:16:16;;;;;;;2.83;2.63;;;;;;;;;;5072369;28;20197;-82
2021/07/10 01:18:44;;;;;;;3.33;3.03;;;;;;;;;;5072133;28;20245;-83
2021/07/10 01:21:12;;;;;;;2.05;1.95;;;;;;;;;;5072955;28;20248;-83
2021/07/10 01:23:40;;;;;;;2.10;2.00;;;;;;;;;;5074156;28;20200;-84
2021/07/10 01:26:07;;;;;;;2.45;2.30;;;;;;;;;;5074855;28;20201;-84
2021/07/10 01:28:35;;;;;;;3.03;2.83;;;;;;;;;;5073575;28;20182;-83
2021/07/10 01:31:02;;;;;;;3.15;2.95;;;;;;;;;;5073356;28;20561;-83
2021/07/10 01:33:30;;;;;;;4.32;3.90;;;;;;;;;;5073482;28;20200;-83
2021/07/10 01:35:57;;;;;;;3.80;3.50;;;;;;;;;;5072638;28;20208;-82
2021/07/10 01:38:26;;;;;;;3.90;3.45;;;;;;;;;;5073022;28;20216;-82
2021/07/10 01:40:53;;;;;;;3.53;3.33;;;;;;;;;;5073046;28;20566;-82
2021/07/10 01:43:21;;;;;;;3.97;3.60;;;;;;;;;;5060628;28;20834;-82
2021/07/10 01:45:48;;;;;;;4.25;3.95;;;;;;;;;;5053291;28;20220;-83
2021/07/10 01:48:16;;;;;;;3.85;3.38;;;;;;;;;;5052604;28;20202;-82
2021/07/10 01:50:44;;;;;;;4.40;4.00;;;;;;;;;;5052281;28;20234;-83
2021/07/10 01:53:12;;;;;;;4.07;3.78;;;;;;;;;;5064043;28;20225;-82
2021/07/10 01:55:41;;;;;;;4.13;3.83;;;;;;;;;;5073293;28;20174;-83
2021/07/10 01:58:09;;;;;;;3.53;3.17;;;;;;;;;;5075063;28;20231;-83
2021/07/10 02:00:45;;;;;;;3.53;3.22;;;;;;;;;;5076428;28;20196;-82
2021/07/10 02:03:13;;;;;;;2.97;2.75;;;;;;;;;;5076748;28;20227;-83
2021/07/10 02:05:40;;;;;;;3.13;2.92;;;;;;;;;;5076912;28;20185;-82
2021/07/10 02:08:09;;;;;;;3.88;3.47;;;;;;;;;;5077444;28;20201;-82
2021/07/10 02:10:37;;;;;;;3.78;3.55;;;;;;;;;;5077794;28;20189;-82
2021/07/10 02:13:09;;;;;;;4.82;4.30;;;;;;;;;;5066904;28;20715;-83
2021/07/10 02:15:37;;;;;;;5.00;4.50;;;;;;;;;;5057881;28;20587;-83
2021/07/10 02:18:05;;;;;;;4.45;4.15;;;;;;;;;;5057760;28;20579;-82
2021/07/10 02:20:32;;;;;;;3.90;3.60;;;;;;;;;;5055552;28;20641;-82
2021/07/10 02:23:01;;;;;;;3.67;2.92;;;;;;;;;;5064116;28;20232;-82
2021/07/10 02:25:30;;;;;;;3.90;3.60;;;;;;;;;;5072833;28;20193;-81
2021/07/10 02:27:58;;;;;;;3.72;3.45;;;;;;;;;;5074801;28;20197;-82
2021/07/10 02:30:29;;;;;;;3.08;2.88;;;;;;;;;;5074511;28;20342;-82
2021/07/10 02:32:59;;;;;;;3.30;3.10;;;;;;;;;;5063971;28;20221;-82
2021/07/10 02:35:27;;;;;;;3.22;3.03;;;;;;;;;;5054342;28;20590;-82
2021/07/10 02:37:54;;;;;;;4.13;3.72;;;;;;;;;;5054774;28;20206;-82
2021/07/10 02:40:22;;;;;;;4.43;4.03;;;;;;;;;;5054268;28;20209;-82
2021/07/10 02:42:50;;;;;;;4.47;4.15;;;;;;;;;;5062163;28;20216;-82
2021/07/10 02:45:20;;;;;;;4.57;4.18;;;;;;;;;;5074438;28;20190;-82
2021/07/10 02:47:50;;;;;;;4.65;4.25;;;;;;;;;;5074409;28;20821;-82
2021/07/10 02:50:21;;;;;;;5.30;4.60;;;;;;;;;;5073812;28;20256;-82
2021/07/10 02:52:48;;;;;;;4.68;4.28;;;;;;;;;;5074094;28;20213;-82
2021/07/10 02:55:16;;;;;;;6.65;5.97;;;;;;;;;;5073892;28;20190;-82
2021/07/10 02:57:44;;;;;;;5.50;5.07;;;;;;;;;;5074125;28;20212;-82
2021/07/10 03:00:15;;;;;;;6.05;5.57;;;;;;;;;;5074066;28;20214;-82
2021/07/10 03:02:42;;;;;;;5.95;5.45;;;;;;;;;;5073906;28;20216;-82
2021/07/10 03:05:12;;;;;;;6.38;5.82;;;;;;;;;;5073639;28;20186;-82
2021/07/10 03:07:41;;;;;;;6.15;5.60;;;;;;;;;;5073962;28;20193;-82
2021/07/10 03:10:11;;;;;;;6.60;5.88;;;;;;;;;;5073821;28;20194;-82
2021/07/10 03:12:39;;;;;;;7.80;5.88;;;;;;;;;;5066906;28;20220;-82
2021/07/10 03:15:09;;;;;;;5.70;4.53;;;;;;;;;;5053762;28;20193;-82
2021/07/10 03:17:37;;;;;;;4.50;4.13;;;;;;;;;;5053662;28;20210;-82
2021/07/10 03:20:06;;;;;;;6.18;5.63;;;;;;;;;;5053792;28;20186;-82
2021/07/10 03:22:35;;;;;;;4.40;4.00;;;;;;;;;;5059102;28;20209;-82
2021/07/10 03:25:03;;;;;;;8.05;5.80;;;;;;;;;;5073356;28;20667;-82
2021/07/10 03:27:31;;;;;;;5.25;4.80;;;;;;;;;;5073026;28;20197;-82
2021/07/10 03:29:58;;;;;;;6.43;5.53;;;;;;;;;;5073241;28;20212;-83
2021/07/10 03:32:26;;;;;;;6.15;5.57;;;;;;;;;;5068103;28;20217;-82
2021/07/10 03:34:53;;;;;;;5.72;4.95;;;;;;;;;;5053268;28;20209;-82
2021/07/10 03:37:21;;;;;;;4.85;4.43;;;;;;;;;;5053016;28;20205;-82
2021/07/10 03:39:49;;;;;;;4.80;4.40;;;;;;;;;;5052879;28;20221;-82
2021/07/10 03:42:17;;;;;;;4.55;4.22;;;;;;;;;;5053199;28;20228;-82
2021/07/10 03:44:44;;;;;;;5.22;4.80;;;;;;;;;;5053181;28;20201;-82
2021/07/10 03:47:12;;;;;;;5.78;5.28;;;;;;;;;;5052819;28;20208;-82
2021/07/10 03:49:39;;;;;;;5.32;4.88;;;;;;;;;;5053022;28;20233;-83
2021/07/10 03:52:08;;;;;;;5.35;4.85;;;;;;;;;;5054517;28;20225;-83
2021/07/10 03:54:35;;;;;;;5.47;5.00;;;;;;;;;;5072300;28;20201;-82
2021/07/10 03:57:05;;;;;;;5.28;4.82;;;;;;;;;;5073107;28;20189;-82
2021/07/10 03:59:32;;;;;;;6.10;5.53;;;;;;;;;;5072445;28;20591;-82
2021/07/10 04:02:00;;;;;;;6.65;6.05;;;;;;;;;;5072020;28;20221;-82
2021/07/10 04:04:28;;;;;;;6.68;6.18;;;;;;;;;;5072909;28;20189;-82
2021/07/10 04:06:56;;;;;;;4.47;4.07;;;;;;;;;;5071884;28;20205;-82
2021/07/10 04:09:24;;;;;;;4.22;3.92;;;;;;;;;;5072258;28;20554;-82
2021/07/10 04:11:51;;;;;;;3.80;3.50;;;;;;;;;;5072003;28;20990;-83
2021/07/10 04:14:20;;;;;;;3.78;3.58;;;;;;;;;;5052399;28;20205;-82
2021/07/10 04:16:47;;;;;;;3.38;3.05;;;;;;;;;;5052696;28;20197;-82
2021/07/10 04:19:15;;;;;;;3.85;3.55;;;;;;;;;;5052519;28;20210;-82
2021/07/10 04:21:42;;;;;;;5.20;4.80;;;;;;;;;;5052147;28;20232;-82
2021/07/10 04:24:10;;;;;;;6.85;6.30;;;;;;;;;;5071547;28;20205;-82
2021/07/10 04:26:37;;;;;;;6.63;6.03;;;;;;;;;;5072142;28;20185;-82
2021/07/10 04:29:05;;;;;;;5.75;5.28;;;;;;;;;;5072420;28;20200;-82
2021/07/10 04:31:35;;;;;;;5.65;5.15;;;;;;;;;;5072336;28;20224;-82
2021/07/10 04:34:02;;;;;;;6.22;5.72;;;;;;;;;;5071880;28;20197;-82
2021/07/10 04:36:29;;;;;;;4.63;4.22;;;;;;;;;;5072149;28;20216;-82
2021/07/10 04:38:57;;;;;;;6.35;5.65;;;;;;;;;;5072451;28;20220;-82
2021/07/10 04:41:24;;;;;;;4.53;4.13;;;;;;;;;;5072319;28;20224;-83
2021/07/10 04:43:52;;;;;;;3.80;3.50;;;;;;;;;;5072231;28;20663;-82
2021/07/10 04:46:19;;;;;;;3.83;3.53;;;;;;;;;;5071562;28;20212;-82
2021/07/10 04:48:48;;;;;;;4.70;4.30;;;;;;;;;;5071528;28;20181;-82
2021/07/10 04:51:16;;;;;;;5.88;5.38;;;;;;;;;;5072351;28;20224;-82
2021/07/10 04:53:43;;;;;;;4.03;3.72;;;;;;;;;;5071793;28;20205;-82
2021/07/10 04:56:11;;;;;;;2.70;2.50;;;;;;;;;;5072109;28;20182;-82
2021/07/10 04:58:38;;;;;;;3.42;3.22;;;;;;;;;;5071967;28;20221;-83
2021/07/10 05:01:06;;;;;;;2.47;2.30;;;;;;;;;;5072213;28;20223;-82
2021/07/10 05:03:33;;;;;;;3.25;3.05;;;;;;;;;;5072379;28;20201;-83
2021/07/10 05:06:02;;;;;;;3.28;3.03;;;;;;;;;;5072269;28;20189;-83
2021/07/10 05:08:30;;;;;;;4.65;4.25;;;;;;;;;;5072277;28;20206;-83
2021/07/10 05:10:57;;;;;;;5.35;4.95;;;;;;;;;;5072247;28;20212;-83
2021/07/10 05:13:24;;;;;;;5.22;4.82;;;;;;;;;;5071833;28;20207;-82
2021/07/10 05:15:52;;;;;;;4.50;4.10;;;;;;;;;;5072158;28;20182;-83
2021/07/10 05:18:20;;;;;;;4.25;3.95;;;;;;;;;;5071630;28;20670;-82
2021/07/10 05:20:47;;;;;;;3.45;3.15;;;;;;;;;;5071798;28;20310;-82
2021/07/10 05:23:16;;;;;;;3.58;3.35;;;;;;;;;;5071656;28;20197;-82
2021/07/10 05:25:44;;;;;;;6.90;6.35;;;;;;;;;;5071951;28;20205;-83
2021/07/10 05:28:11;;;;;;;4.10;3.70;;;;;;;;;;5072193;28;20189;-82
2021/07/10 05:30:39;;;;;;;3.58;3.38;;;;;;;;;;5072019;28;20205;-82
2021/07/10 05:33:06;;;;;;;3.20;3.00;;;;;;;;;;5074094;28;20590;-83
2021/07/10 05:35:34;;;;;;;5.72;5.22;;;;;;;;;;5075870;28;20192;-83
2021/07/10 05:38:01;;;;;;;6.10;5.60;;;;;;;;;;5075910;28;20231;-83
2021/07/10 05:40:30;;;;;;;6.13;5.63;;;;;;;;;;5075867;28;20220;-83
2021/07/10 05:42:58;;;;;;;5.88;5.43;;;;;;;;;;5075530;28;20588;-83
2021/07/10 05:45:25;;;;;;;7.03;6.43;;;;;;;;;;5075350;28;20181;-82
2021/07/10 05:47:53;;;;;;;5.30;4.93;;;;;;;;;;5075030;28;20239;-83
2021/07/10 05:50:20;;;;;;;4.15;3.75;;;;;;;;;;5074740;28;20236;-82
2021/07/10 05:52:47;;;;;;;5.97;5.47;;;;;;;;;;5075409;28;20229;-82
2021/07/10 05:55:15;;;;;;;4.38;4.07;;;;;;;;;;5075376;28;20174;-82
2021/07/10 05:57:44;;;;;;;3.80;3.50;;;;;;;;;;5075268;28;20575;-82
2021/07/10 06:00:13;;;;;;;3.50;3.25;;;;;;;;;;5074838;28;20220;-81
2021/07/10 06:02:41;;;;;;;3.15;2.95;;;;;;;;;;5075327;28;20213;-82
2021/07/10 06:05:10;;;;;;;3.97;3.67;;;;;;;;;;5074999;28;20635;-82
2021/07/10 06:07:38;;;;;;;3.92;3.63;;;;;;;;;;5075075;28;20556;-83
2021/07/10 06:10:09;;;;;;;5.43;5.00;;;;;;;;;;5075011;28;20656;-82
2021/07/10 06:12:37;;;;;;;5.50;5.00;;;;;;;;;;5075123;28;20216;-82
2021/07/10 06:15:10;;;;;;;4.25;3.95;;;;;;;;;;5075586;28;20185;-83
2021/07/10 06:17:37;;;;;;;5.43;5.03;;;;;;;;;;5075043;28;20212;-82
2021/07/10 06:20:07;;;;;;;8.07;6.32;;;;;;;;;;5075044;28;20225;-82
2021/07/10 06:22:35;;;;;;;8.57;7.88;;;;;;;;;;5075445;28;20707;-82
2021/07/10 06:25:05;;;;;;;7.80;7.13;;;;;;;;;;5075629;28;20185;-82
2021/07/10 06:27:32;;;;;;;8.35;7.63;;;;;;;;;;5075288;28;20233;-82
2021/07/10 06:29:59;;;;;;;7.32;6.72;;;;;;;;;;5075322;28;20204;-82
2021/07/10 06:32:28;;;;;;;5.72;5.22;;;;;;;;;;5074576;28;20221;-82
2021/07/10 06:34:55;;;;;;;5.10;4.70;;;;;;;;;;5075386;28;20185;-82
2021/07/10 06:37:23;;;;;;;4.57;4.18;;;;;;;;;;5075517;28;20197;-84
2021/07/10 06:39:50;;;;;;;3.78;3.55;;;;;;;;;;5075028;28;20232;-82
2021/07/10 06:42:20;;;;;;;4.65;4.25;;;;;;;;;;5075034;28;20224;-82
2021/07/10 06:44:48;;;;;;;4.50;4.20;;;;;;;;;;5074486;28;20278;-83
2021/07/10 06:47:15;;;;;;;4.10;3.80;;;;;;;;;;5074931;28;20547;-83
2021/07/10 06:49:44;;;;;;;5.90;5.30;;;;;;;;;;5074665;28;20231;-82
2021/07/10 06:52:12;;;;;;;4.75;4.38;;;;;;;;;;5074954;28;20228;-83
2021/07/10 06:54:39;;;;;;;7.78;6.97;;;;;;;;;;5074768;28;20181;-83
2021/07/10 06:57:07;;;;;;;9.88;7.20;;;;;;;;;;5074629;28;20231;-82
2021/07/10 06:59:34;;;;;;;6.35;5.85;;;;;;;;;;5074766;28;20215;-83
2021/07/10 07:02:02;;;;;;;8.13;7.43;;;;;;;;;;5074621;28;20703;-82
2021/07/10 07:04:29;;;;;;;8.63;7.93;;;;;;;;;;5073594;28;20211;-83
2021/07/10 07:06:58;;;;;;;6.63;6.03;;;;;;;;;;5074409;28;20181;-82
2021/07/10 07:09:26;;;;;;;6.72;6.13;;;;;;;;;;5074430;28;20205;-83
2021/07/10 07:11:53;;;;;;;7.43;6.80;;;;;;;;;;5076061;28;20217;-83
2021/07/10 07:14:21;;;;;;;8.90;8.00;;;;;;;;;;5074644;28;20185;-83
2021/07/10 07:16:48;;;;;;;9.75;8.75;;;;;;;;;;5074796;28;20193;-83
2021/07/10 07:19:16;;;;;;;9.45;8.55;;;;;;;;;;5074254;28;20189;-82
2021/07/10 07:21:44;;;;;;;9.35;8.55;;;;;;;;;;5073732;28;20221;-82
2021/07/10 07:24:13;;;;;;;7.57;6.95;;;;;;;;;;5074063;28;20192;-83
2021/07/10 07:26:40;;;;;;;6.65;6.10;;;;;;;;;;5074229;28;20193;-83
2021/07/10 07:29:08;;;;;;;7.53;6.82;;;;;;;;;;5074220;28;20185;-82
2021/07/10 07:31:35;;;;;;;7.50;6.90;;;;;;;;;;5073969;28;20265;-82
2021/07/10 07:34:03;;;;;;;8.77;7.88;;;;;;;;;;5074265;28;20192;-82
2021/07/10 07:36:30;;;;;;;5.90;5.50;;;;;;;;;;5073847;28;20181;-83
2021/07/10 07:38:58;;;;;;;8.70;8.00;;;;;;;;;;5073319;28;20208;-83
2021/07/10 07:41:26;;;;;;;8.15;7.45;;;;;;;;;;5074040;28;20229;-83
2021/07/10 07:43:54;;;;;;;9.75;8.95;;;;;;;;;;5073294;28;20201;-82
2021/07/10 07:46:21;;;;;;;10.57;9.52;;;;;;;;;;5073699;28;20192;-83
2021/07/10 07:52:30;;;;;;;8.75;8.02;;;;;;;;;;4793840;28;20251;-82
2021/07/10 07:54:58;;;;;;;7.05;6.45;;;;;;;;;;5073309;28;20212;-81
2021/07/10 07:57:27;;;;;;;7.25;6.65;;;;;;;;;;5073895;28;20201;-83
2021/07/10 07:59:54;;;;;;;9.48;8.68;;;;;;;;;;5073721;28;20217;-83
2021/07/10 08:02:23;;;;;;;8.05;7.35;;;;;;;;;;5073200;28;20224;-82
2021/07/10 08:04:50;;;;;;;9.25;8.45;;;;;;;;;;5073647;28;20189;-82
2021/07/10 08:07:18;;;;;;;9.60;8.65;;;;;;;;;;5074375;28;20193;-83
2021/07/10 08:09:46;;;;;;;10.60;9.70;;;;;;;;;;5074240;28;20189;-82
2021/07/10 08:12:14;;;;;;;8.90;8.20;;;;;;;;;;5072909;28;20221;-82
2021/07/10 08:14:42;;;;;;;7.22;6.55;;;;;;;;;;5073144;28;20240;-82
2021/07/10 08:17:10;;;;;;;9.10;8.30;;;;;;;;;;5073489;28;20181;-82
2021/07/10 08:19:37;;;;;;;10.52;9.63;;;;;;;;;;5074339;28;20189;-82
2021/07/10 08:22:06;;;;;;;7.75;7.13;;;;;;;;;;5073168;28;20229;-83
2021/07/10 08:24:33;;;;;;;7.90;7.20;;;;;;;;;;5072591;28;20216;-82
2021/07/10 08:27:00;;;;;;;9.43;8.73;;;;;;;;;;5074533;28;20185;-83
2021/07/10 08:29:28;;;;;;;7.57;6.88;;;;;;;;;;5072950;28;20224;-82
2021/07/10 08:31:56;;;;;;;8.63;7.93;;;;;;;;;;5072490;28;20228;-83
2021/07/10 08:34:24;;;;;;;8.18;7.47;;;;;;;;;;5073858;28;20201;-82
2021/07/10 08:36:51;;;;;;;6.82;6.18;;;;;;;;;;5073542;28;20201;-83
2021/07/10 08:39:19;;;;;;;8.60;7.97;;;;;;;;;;5072435;28;20201;-83
2021/07/10 08:41:49;;;;;;;10.20;9.02;;;;;;;;;;5059504;28;20715;-85
2021/07/10 08:44:17;;;;;;;7.88;7.25;;;;;;;;;;5071631;28;20193;-82
2021/07/10 08:46:45;;;;;;;8.13;7.50;;;;;;;;;;5071327;28;20177;-83
2021/07/10 08:49:17;;;;;;;7.47;6.72;;;;;;;;;;5070449;28;20216;-83
2021/07/10 08:51:46;;;;;;;9.18;8.38;;;;;;;;;;5069549;28;20684;-84
2021/07/10 08:54:13;;;;;;;9.93;9.02;;;;;;;;;;5069931;28;20211;-84
2021/07/10 08:56:41;;;;;;;8.20;7.60;;;;;;;;;;5069385;28;20209;-83
2021/07/10 08:59:10;;;;;;;8.80;8.00;;;;;;;;;;5070607;28;20208;-83
2021/07/10 09:01:37;;;;;;;6.95;6.35;;;;;;;;;;5071612;28;20231;-84
2021/07/10 09:04:06;;;;;;;8.75;8.05;;;;;;;;;;5073738;28;20205;-83
2021/07/10 09:06:35;;;;;;;7.20;6.60;;;;;;;;;;5072731;28;20230;-84
2021/07/10 09:09:03;;;;;;;6.15;5.65;;;;;;;;;;5074862;28;20201;-84
2021/07/10 09:11:31;;;;;;;4.50;4.20;;;;;;;;;;5074905;28;20216;-83
2021/07/10 09:13:59;;;;;;;5.22;4.82;;;;;;;;;;5075189;28;20208;-84
2021/07/10 09:16:28;;;;;;;5.45;4.95;;;;;;;;;;5074209;28;20205;-85
2021/07/10 09:19:00;;;;;;;6.28;5.68;;;;;;;;;;5073754;28;20682;-83
2021/07/10 09:21:41;;;;;;;7.22;6.57;;;;;;;;;;5074446;28;20606;-82
2021/07/10 09:24:14;;;;;;;6.63;6.03;;;;;;;;;;5074624;28;20201;-82
2021/07/10 09:26:45;;;;;;;5.35;4.95;;;;;;;;;;5074333;28;20200;-83
2021/07/10 09:29:15;;;;;;;6.72;6.22;;;;;;;;;;5073828;28;20205;-83
2021/07/10 09:31:45;;;;;;;6.18;5.65;;;;;;;;;;5073443;28;20229;-82
2021/07/10 09:34:16;;;;;;;5.43;5.03;;;;;;;;;;5074764;28;20193;-82
2021/07/10 09:37:01;;;;;;;7.45;5.47;;;;;;;;;;5074361;28;20212;-83
2021/07/10 09:39:30;;;;;;;5.65;4.90;;;;;;;;;;5074534;28;20205;-83
2021/07/10 09:41:59;;;;;;;5.38;4.97;;;;;;;;;;5059442;28;20285;-83
2021/07/10 09:44:39;;;;;;;5.82;5.25;;;;;;;;;;5054006;28;20312;-82
2021/07/10 09:47:07;;;;;;;7.20;6.60;;;;;;;;;;5053213;28;20206;-82
2021/07/10 09:49:35;;;;;;;4.72;4.38;;;;;;;;;;5051833;28;20202;-83
2021/07/10 09:52:09;;;;;;;5.80;5.15;;;;;;;;;;5066125;28;20236;-82
2021/07/10 09:54:39;;;;;;;5.00;4.60;;;;;;;;;;5072924;28;20209;-83
2021/07/10 09:57:19;;;;;;;5.13;4.72;;;;;;;;;;5072883;28;20205;-82
2021/07/10 09:59:50;;;;;;;4.28;3.72;;;;;;;;;;5072937;28;20204;-82
2021/07/10 10:02:25;;;;;;;3.35;3.15;;;;;;;;;;5073256;28;20232;-82
2021/07/10 10:04:54;;;;;;;4.43;4.03;;;;;;;;;;5073305;28;20567;-83
2021/07/10 10:07:23;;;;;;;3.58;3.28;;;;;;;;;;5072665;28;20209;-82
2021/07/10 10:09:57;;;;;;;3.47;3.28;;;;;;;;;;5073033;28;20214;-82
2021/07/10 10:12:25;;;;;;;4.10;3.80;;;;;;;;;;5074033;28;20220;-82
2021/07/10 10:14:56;;;;;;;3.92;3.63;;;;;;;;;;5071051;28;20209;-82
2021/07/10 10:17:26;;;;;;;6.15;4.60;;;;;;;;;;5071703;28;20205;-83
2021/07/10 10:19:54;;;;;;;4.95;4.45;;;;;;;;;;5072248;28;20213;-83
2021/07/10 10:22:23;;;;;;;5.40;5.00;;;;;;;;;;5072387;28;20229;-82
2021/07/10 10:24:53;;;;;;;6.97;5.38;;;;;;;;;;5071569;28;20686;-82
2021/07/10 10:27:21;;;;;;;4.93;4.57;;;;;;;;;;5072286;28;20205;-83
2021/07/10 10:29:54;;;;;;;5.47;5.07;;;;;;;;;;5071972;28;20212;-82
2021/07/10 10:32:22;;;;;;;5.07;4.78;;;;;;;;;;5055706;28;20229;-83
2021/07/10 10:34:50;;;;;;;4.40;4.10;;;;;;;;;;5054955;28;20196;-83
2021/07/10 10:37:19;;;;;;;5.20;4.80;;;;;;;;;;5054728;28;20605;-82
2021/07/10 10:39:48;;;;;;;5.05;4.68;;;;;;;;;;5054400;28;20205;-81
2021/07/10 10:42:22;;;;;;;4.57;4.22;;;;;;;;;;5070141;28;20225;-83
2021/07/10 10:44:56;;;;;;;5.10;4.70;;;;;;;;;;5074280;28;20193;-85
2021/07/10 10:47:25;;;;;;;5.07;4.57;;;;;;;;;;5074281;28;20181;-82
2021/07/10 10:49:54;;;;;;;4.43;4.13;;;;;;;;;;5074670;28;20189;-81
2021/07/10 10:52:32;;;;;;;5.90;5.45;;;;;;;;;;5059453;28;20245;-83
2021/07/10 10:55:14;;;;;;;4.55;4.15;;;;;;;;;;5057124;28;20208;-82
2021/07/10 10:57:49;;;;;;;4.40;4.10;;;;;;;;;;5055158;28;20676;-82
2021/07/10 11:00:28;;;;;;;5.20;4.68;;;;;;;;;;5054260;28;20208;-81
2021/07/10 11:03:07;;;;;;;4.82;4.53;;;;;;;;;;5052386;28;20278;-82
2021/07/10 11:05:54;;;;;;;5.15;4.75;;;;;;;;;;5050912;28;20210;-81
2021/07/10 11:08:34;;;;;;;4.53;4.22;;;;;;;;;;5051772;28;20205;-82
2021/07/10 11:11:37;;;;;;;4.35;4.05;;;;;;;;;;5056515;28;20197;-82
2021/07/10 11:14:18;;;;;;;4.57;4.25;;;;;;;;;;5070973;28;20268;-82
2021/07/10 11:17:11;;;;;;;3.50;3.20;;;;;;;;;;5071025;28;20240;-82
2021/07/10 11:19:54;;;;;;;4.88;4.47;;;;;;;;;;5070566;28;20209;-81
2021/07/10 11:22:57;;;;;;;4.10;3.80;;;;;;;;;;5070092;28;20684;-81
2021/07/10 11:26:06;;;;;;;3.95;3.60;;;;;;;;;;5068964;28;20212;-82
2021/07/10 11:29:01;;;;;;;4.35;4.05;;;;;;;;;;5069977;28;20266;-82
2021/07/10 11:31:37;;;;;;;4.22;3.92;;;;;;;;;;5069683;28;20221;-82
2021/07/10 11:34:11;;;;;;;3.75;3.55;;;;;;;;;;5070937;28;20213;-82
2021/07/10 11:36:52;;;;;;;3.30;3.10;;;;;;;;;;5070906;28;20671;-82
2021/07/10 11:39:42;;;;;;;3.50;3.20;;;;;;;;;;5070868;28;20243;-81
2021/07/10 11:42:44;;;;;;;4.20;3.90;;;;;;;;;;5070159;28;20220;-82
2021/07/10 11:45:31;;;;;;;4.57;4.28;;;;;;;;;;5069809;28;20210;-82
2021/07/10 11:48:19;;;;;;;4.38;4.07;;;;;;;;;;5070394;28;20579;-83
2021/07/10 11:51:07;;;;;;;3.38;3.17;;;;;;;;;;5069789;28;20204;-83
2021/07/10 11:53:34;;;;;;;3.85;3.55;;;;;;;;;;5069660;28;20201;-81
2021/07/10 11:56:02;;;;;;;3.58;3.38;;;;;;;;;;5070438;28;20201;-81
2021/07/10 11:58:30;;;;;;;3.58;3.28;;;;;;;;;;5069850;28;20231;-82
2021/07/10 12:01:04;;;;;;;3.83;3.53;;;;;;;;;;5070257;28;20232;-81
2021/07/10 12:03:32;;;;;;;3.40;3.20;;;;;;;;;;5069702;28;20274;-82
2021/07/10 12:06:00;;;;;;;2.50;2.40;;;;;;;;;;5069937;28;20605;-81
2021/07/10 12:08:30;;;;;;;3.85;3.55;;;;;;;;;;5069487;28;20670;-81
2021/07/10 12:10:58;;;;;;;2.75;2.55;;;;;;;;;;5069482;28;20301;-82
2021/07/10 12:13:30;;;;;;;3.00;2.80;;;;;;;;;;5069770;28;20201;-83
2021/07/10 12:15:59;;;;;;;2.55;2.38;;;;;;;;;;5070034;28;20217;-82
2021/07/10 12:18:31;;;;;;;3.28;2.97;;;;;;;;;;5070657;28;20209;-81
2021/07/10 12:21:01;;;;;;;2.92;2.72;;;;;;;;;;5069824;28;20255;-82
2021/07/10 12:23:31;;;;;;;2.55;2.45;;;;;;;;;;5069851;28;20235;-82
2021/07/10 12:26:01;;;;;;;2.55;2.45;;;;;;;;;;5070548;28;20205;-82
2021/07/10 12:28:39;;;;;;;2.30;2.20;;;;;;;;;;5070033;28;20211;-81
2021/07/10 12:31:15;;;;;;;2.70;2.53;;;;;;;;;;5062365;28;20457;-82
2021/07/10 12:33:52;;;;;;;2.60;2.47;;;;;;;;;;5049537;28;20197;-81
2021/07/10 12:36:23;;;;;;;5.63;5.00;;;;;;;;;;5050027;28;20674;-82
2021/07/10 12:39:07;;;;;;;7.95;6.85;;;;;;;;;;5050028;28;20202;-82
2021/07/10 12:41:46;;;;;;;5.53;5.03;;;;;;;;;;5049859;28;20219;-82
2021/07/10 12:44:27;;;;;;;3.95;3.65;;;;;;;;;;5050206;28;20733;-82
2021/07/10 12:47:05;;;;;;;4.40;4.10;;;;;;;;;;5049317;28;20695;-81
2021/07/10 12:49:38;;;;;;;3.50;3.30;;;;;;;;;;5049498;28;20215;-82
2021/07/10 12:52:16;;;;;;;3.55;3.33;;;;;;;;;;5055723;28;20239;-82
2021/07/10 12:54:48;;;;;;;2.53;2.40;;;;;;;;;;5069540;28;20213;-82
2021/07/10 12:57:28;;;;;;;2.67;2.58;;;;;;;;;;5069189;28;20228;-82
2021/07/10 13:00:00;;;;;;;3.15;2.92;;;;;;;;;;5069245;28;20201;-82
2021/07/10 13:02:34;;;;;;;2.30;2.20;;;;;;;;;;5068557;28;20254;-82
2021/07/10 13:05:18;;;;;;;2.72;2.53;;;;;;;;;;5068815;28;20660;-82
2021/07/10 13:07:46;;;;;;;2.58;2.42;;;;;;;;;;5068848;28;20197;-82
2021/07/10 13:10:30;;;;;;;2.10;2.00;;;;;;;;;;5068716;28;20220;-82
2021/07/10 13:13:00;;;;;;;1.70;1.60;;;;;;;;;;5048515;28;20227;-82
2021/07/10 13:15:31;;;;;;;1.88;1.77;;;;;;;;;;5049067;28;20201;-82
2021/07/10 13:18:26;;;;;;;2.00;1.90;;;;;;;;;;5048964;28;20202;-83
2021/07/10 13:20:58;;;;;;;1.60;1.50;;;;;;;;;;5002370;28;20693;-82
2021/07/10 13:23:35;;;;;;;2.10;2.00;;;;;;;;;;5048579;28;20210;-82
2021/07/10 13:26:04;;;;;;;1.67;1.58;;;;;;;;;;5048530;28;20212;-82
2021/07/10 13:28:38;;;;;;;1.88;1.77;;;;;;;;;;5048714;28;20204;-82
2021/07/10 13:31:22;;;;;;;1.70;1.60;;;;;;;;;;5055653;28;20200;-82
2021/07/10 13:33:54;;;;;;;2.05;1.95;;;;;;;;;;5070002;28;20196;-82
2021/07/10 13:36:25;;;;;;;1.88;1.77;;;;;;;;;;5070587;28;20203;-83
2021/07/10 13:39:00;;;;;;;1.92;1.83;;;;;;;;;;5069428;28;20266;-82
2021/07/10 13:41:29;;;;;;;2.00;1.90;;;;;;;;;;5070478;28;20212;-83
2021/07/10 13:44:10;;;;;;;1.50;1.40;;;;;;;;;;5070640;28;20229;-83
2021/07/10 13:46:44;;;;;;;1.80;1.70;;;;;;;;;;5070784;28;20208;-82
2021/07/10 13:49:31;;;;;;;1.58;1.48;;;;;;;;;;5070893;28;20674;-83
2021/07/10 13:52:09;;;;;;;1.60;1.50;;;;;;;;;;5068793;28;20237;-83
2021/07/10 13:54:40;;;;;;;2.15;1.90;;;;;;;;;;5073115;28;20765;-83
2021/07/10 13:57:24;;;;;;;1.90;1.80;;;;;;;;;;5074814;28;20595;-82
2021/07/10 13:59:56;;;;;;;1.70;1.60;;;;;;;;;;5073499;28;20685;-83
2021/07/10 14:02:24;;;;;;;1.77;1.67;;;;;;;;;;5072668;28;20217;-82
2021/07/10 14:05:04;;;;;;;1.88;1.77;;;;;;;;;;5071624;28;20573;-82
2021/07/10 14:07:34;;;;;;;1.90;1.80;;;;;;;;;;5072183;28;20204;-82
2021/07/10 14:10:02;;;;;;;1.95;1.85;;;;;;;;;;5071773;28;20212;-82
2021/07/10 14:12:29;;;;;;;2.00;1.90;;;;;;;;;;5071769;28;20229;-81
2021/07/10 14:14:57;;;;;;;1.73;1.63;;;;;;;;;;5072031;28;20216;-82
2021/07/10 14:17:25;;;;;;;1.92;1.83;;;;;;;;;;5071304;28;20299;-82
2021/07/10 14:19:55;;;;;;;1.83;1.73;;;;;;;;;;5071833;28;20197;-82
2021/07/10 14:22:22;;;;;;;2.15;2.05;;;;;;;;;;5071538;28;20627;-82
2021/07/10 14:24:51;;;;;;;1.85;1.75;;;;;;;;;;5071521;28;20252;-83
2021/07/10 14:27:19;;;;;;;1.90;1.80;;;;;;;;;;5071953;28;20212;-82
2021/07/10 14:29:46;;;;;;;2.17;2.08;;;;;;;;;;5071308;28;20260;-81
2021/07/10 14:32:14;;;;;;;2.40;2.30;;;;;;;;;;5056172;28;20225;-82
2021/07/10 14:34:42;;;;;;;3.15;2.80;;;;;;;;;;5052826;28;20210;-82
2021/07/10 14:37:09;;;;;;;2.42;2.22;;;;;;;;;;5054411;28;20213;-82
2021/07/10 14:39:37;;;;;;;2.60;2.40;;;;;;;;;;5054761;28;20202;-82
2021/07/10 14:42:06;;;;;;;2.80;2.60;;;;;;;;;;5071093;28;20221;-83
2021/07/10 14:44:34;;;;;;;2.45;2.35;;;;;;;;;;5076010;28;20220;-83
2021/07/10 14:47:03;;;;;;;2.15;2.05;;;;;;;;;;5075273;28;20721;-83
2021/07/10 14:49:30;;;;;;;3.22;3.03;;;;;;;;;;5074000;28;20216;-84
2021/07/10 14:51:58;;;;;;;2.78;2.42;;;;;;;;;;5073474;28;20870;-82
2021/07/10 14:54:25;;;;;;;2.70;2.50;;;;;;;;;;5076325;28;20189;-84
2021/07/10 14:56:53;;;;;;;2.03;1.92;;;;;;;;;;5075562;28;20185;-83
2021/07/10 14:59:22;;;;;;;2.33;2.20;;;;;;;;;;5075188;28;20196;-84
2021/07/10 15:01:49;;;;;;;2.08;1.98;;;;;;;;;;5073691;28;20224;-86
2021/07/10 15:04:17;;;;;;;2.60;2.40;;;;;;;;;;5074019;28;20268;-85
2021/07/10 15:06:44;;;;;;;2.40;2.20;;;;;;;;;;5075293;28;20212;-84